Time;durP1;ratioP1;P1;durP2;ratioP2;P2;SDS_P1;SDS_P2;PMS_P1;PMS_P2;Temp;Humidity;BMP_temperature;BMP_pressure;BME280_temperature;BME280_humidity;BME280_pressure;Samples;Min_cycle;Max_cycle;Signal;HPM_P1;HPM_P2
2023/12/17 00:00:27;;;;;;;11.50;7.38;;;;;;;;;;5019029;28;20026;-63
2023/12/17 00:02:53;;;;;;;10.20;6.40;;;;;;;;;;5021417;28;20029;-62
2023/12/17 00:05:19;;;;;;;12.10;7.05;;;;;;;;;;5031261;28;20040;-63
2023/12/17 00:07:45;;;;;;;9.68;5.72;;;;;;;;;;5028753;28;20022;-63
2023/12/17 00:10:11;;;;;;;14.18;7.95;;;;;;;;;;5031018;28;20096;-63
2023/12/17 00:12:37;;;;;;;12.20;6.15;;;;;;;;;;5016700;28;20402;-65
2023/12/17 00:15:03;;;;;;;16.05;7.45;;;;;;;;;;5033808;28;20029;-63
2023/12/17 00:17:29;;;;;;;11.20;6.22;;;;;;;;;;5035084;28;20426;-60
2023/12/17 00:19:55;;;;;;;11.23;6.32;;;;;;;;;;5035711;28;20021;-60
2023/12/17 00:22:21;;;;;;;17.35;9.93;;;;;;;;;;5018401;28;20122;-60
2023/12/17 00:24:47;;;;;;;15.15;7.93;;;;;;;;;;5007945;28;20022;-63
2023/12/17 00:27:15;;;;;;;13.45;7.63;;;;;;;;;;5023734;28;20060;-63
2023/12/17 00:29:41;;;;;;;18.35;11.55;;;;;;;;;;5017544;28;20033;-64
2023/12/17 00:32:07;;;;;;;15.15;9.40;;;;;;;;;;5022892;28;20065;-62
2023/12/17 00:34:33;;;;;;;20.70;10.93;;;;;;;;;;5028743;28;20049;-63
2023/12/17 00:36:59;;;;;;;22.67;14.13;;;;;;;;;;5028960;28;20109;-63
2023/12/17 00:41:57;;;;;;;15.10;7.72;;;;;;;;;;5047030;28;20064;-51
2023/12/17 00:44:23;;;;;;;10.57;6.40;;;;;;;;;;5050938;28;20467;-52
2023/12/17 00:46:49;;;;;;;11.45;6.50;;;;;;;;;;5050518;28;20031;-50
2023/12/17 00:49:15;;;;;;;16.35;8.77;;;;;;;;;;5050220;28;20375;-49
2023/12/17 00:51:41;;;;;;;13.63;7.40;;;;;;;;;;5032052;28;20037;-52
2023/12/17 00:54:07;;;;;;;12.95;7.70;;;;;;;;;;5050321;28;20503;-51
2023/12/17 00:56:33;;;;;;;13.65;9.35;;;;;;;;;;5050039;28;20116;-53
2023/12/17 00:58:59;;;;;;;11.38;7.53;;;;;;;;;;5050879;28;20109;-51
2023/12/17 01:01:25;;;;;;;11.45;7.25;;;;;;;;;;5051282;28;20100;-48
2023/12/17 01:03:51;;;;;;;15.05;8.05;;;;;;;;;;5051692;28;20020;-51
2023/12/17 01:06:17;;;;;;;13.27;7.90;;;;;;;;;;5051526;28;20111;-47
2023/12/17 01:08:43;;;;;;;15.18;9.98;;;;;;;;;;5051780;28;20449;-47
2023/12/17 01:11:09;;;;;;;20.20;12.43;;;;;;;;;;5052160;28;20031;-51
2023/12/17 01:13:35;;;;;;;14.02;9.07;;;;;;;;;;5052428;28;20418;-50
2023/12/17 01:16:01;;;;;;;19.92;11.63;;;;;;;;;;5036820;28;20041;-54
2023/12/17 01:18:27;;;;;;;10.60;6.55;;;;;;;;;;5053727;28;20478;-49
2023/12/17 01:20:53;;;;;;;18.92;8.57;;;;;;;;;;5052093;28;20524;-51
2023/12/17 01:23:19;;;;;;;17.55;10.40;;;;;;;;;;5051515;28;20029;-48
2023/12/17 01:25:45;;;;;;;23.02;12.40;;;;;;;;;;5052393;28;20017;-51
2023/12/17 01:28:11;;;;;;;9.98;5.85;;;;;;;;;;5052515;28;20063;-47
2023/12/17 01:30:37;;;;;;;12.20;7.28;;;;;;;;;;5052056;28;20025;-48
2023/12/17 01:33:03;;;;;;;10.82;6.88;;;;;;;;;;5031336;28;20025;-48
2023/12/17 01:35:30;;;;;;;15.70;9.52;;;;;;;;;;5048585;28;20029;-50
2023/12/17 01:37:56;;;;;;;21.35;13.32;;;;;;;;;;5051566;28;20071;-45
2023/12/17 01:40:22;;;;;;;11.98;6.22;;;;;;;;;;5050933;28;20036;-50
2023/12/17 01:42:48;;;;;;;11.43;7.05;;;;;;;;;;5050762;28;20052;-51
2023/12/17 01:45:14;;;;;;;14.80;7.85;;;;;;;;;;5050837;28;20025;-50
2023/12/17 01:47:40;;;;;;;14.20;8.00;;;;;;;;;;5056870;28;20074;-53
2023/12/17 01:50:07;;;;;;;10.55;6.20;;;;;;;;;;5045012;28;20501;-48
2023/12/17 01:52:33;;;;;;;10.57;6.30;;;;;;;;;;5050572;28;20041;-49
2023/12/17 01:54:59;;;;;;;9.75;5.88;;;;;;;;;;5029778;28;20021;-48
2023/12/17 01:57:25;;;;;;;13.02;7.40;;;;;;;;;;5047478;28;20040;-48
2023/12/17 01:59:51;;;;;;;9.80;6.32;;;;;;;;;;5050560;28;20027;-49
2023/12/17 02:02:17;;;;;;;9.30;5.57;;;;;;;;;;5050332;28;20021;-47
2023/12/17 02:04:43;;;;;;;11.10;7.20;;;;;;;;;;5050411;28;20024;-49
2023/12/17 02:07:09;;;;;;;22.20;7.03;;;;;;;;;;5050616;28;20098;-52
2023/12/17 02:09:35;;;;;;;12.38;7.15;;;;;;;;;;5050139;28;20107;-48
2023/12/17 02:12:01;;;;;;;12.25;6.70;;;;;;;;;;5050216;28;20021;-50
2023/12/17 02:14:27;;;;;;;13.75;7.20;;;;;;;;;;5050208;28;20162;-47
2023/12/17 02:16:53;;;;;;;8.65;5.00;;;;;;;;;;5050023;28;20032;-48
2023/12/17 02:19:19;;;;;;;8.93;4.85;;;;;;;;;;5050264;28;20031;-48
2023/12/17 02:21:45;;;;;;;7.82;4.50;;;;;;;;;;5049842;28;20151;-48
2023/12/17 02:24:12;;;;;;;8.10;4.68;;;;;;;;;;5050124;28;20029;-49
2023/12/17 02:26:41;;;;;;;9.13;6.22;;;;;;;;;;5049679;28;20075;-50
2023/12/17 02:29:07;;;;;;;15.52;7.63;;;;;;;;;;5050250;28;20028;-48
2023/12/17 02:31:33;;;;;;;11.23;6.72;;;;;;;;;;5049548;28;20501;-49
2023/12/17 02:33:59;;;;;;;10.80;6.75;;;;;;;;;;5028729;28;20052;-45
2023/12/17 02:36:25;;;;;;;7.05;4.20;;;;;;;;;;5046500;28;20021;-49
2023/12/17 02:38:51;;;;;;;11.57;6.63;;;;;;;;;;5049915;28;20441;-49
2023/12/17 02:41:17;;;;;;;9.02;6.32;;;;;;;;;;5049576;28;20138;-50
2023/12/17 02:43:43;;;;;;;8.95;5.20;;;;;;;;;;5031407;28;20148;-52
2023/12/17 02:46:09;;;;;;;11.77;7.00;;;;;;;;;;5049950;28;20027;-46
2023/12/17 02:48:35;;;;;;;11.88;6.88;;;;;;;;;;5049854;28;20459;-50
2023/12/17 02:51:01;;;;;;;6.47;3.80;;;;;;;;;;5049743;28;20101;-46
2023/12/17 02:53:27;;;;;;;10.27;4.82;;;;;;;;;;5029101;28;20026;-47
2023/12/17 02:55:53;;;;;;;10.73;6.07;;;;;;;;;;5049764;28;20033;-48
2023/12/17 02:58:18;;;;;;;15.73;8.43;;;;;;;;;;5049830;28;20544;-51
2023/12/17 03:00:45;;;;;;;5.88;3.50;;;;;;;;;;5049554;28;20029;-48
2023/12/17 03:03:11;;;;;;;13.00;6.72;;;;;;;;;;5052692;28;20025;-48
2023/12/17 03:05:37;;;;;;;16.33;6.78;;;;;;;;;;5053836;28;20032;-54
2023/12/17 03:08:02;;;;;;;9.52;4.50;;;;;;;;;;5054164;28;20028;-49
2023/12/17 03:10:28;;;;;;;12.68;6.40;;;;;;;;;;5053772;28;20494;-46
2023/12/17 03:12:54;;;;;;;11.68;7.38;;;;;;;;;;5032523;28;20037;-51
2023/12/17 03:15:20;;;;;;;11.13;5.50;;;;;;;;;;5049862;28;20023;-48
2023/12/17 03:17:46;;;;;;;12.20;7.38;;;;;;;;;;5053945;28;20425;-49
2023/12/17 03:20:12;;;;;;;9.48;5.18;;;;;;;;;;5053498;28;20021;-50
2023/12/17 03:22:38;;;;;;;9.73;6.05;;;;;;;;;;5054219;28;20025;-49
2023/12/17 03:25:05;;;;;;;16.58;6.88;;;;;;;;;;5055012;28;20090;-50
2023/12/17 03:27:31;;;;;;;13.50;7.15;;;;;;;;;;5054939;28;20452;-46
2023/12/17 03:29:57;;;;;;;11.02;6.57;;;;;;;;;;5032241;28;20116;-50
2023/12/17 03:32:23;;;;;;;5.60;3.50;;;;;;;;;;5049612;28;20505;-49
2023/12/17 03:34:49;;;;;;;22.90;10.10;;;;;;;;;;5053177;28;20100;-47
2023/12/17 03:37:15;;;;;;;11.20;5.75;;;;;;;;;;5053466;28;20592;-52
2023/12/17 03:39:41;;;;;;;6.55;3.50;;;;;;;;;;5034543;28;20255;-46
2023/12/17 03:42:07;;;;;;;13.70;6.70;;;;;;;;;;5053580;28;20048;-50
2023/12/17 03:44:33;;;;;;;8.63;5.50;;;;;;;;;;5060339;28;20131;-50
2023/12/17 03:46:59;;;;;;;9.88;5.10;;;;;;;;;;5033997;28;20032;-50
2023/12/17 03:49:25;;;;;;;10.20;5.55;;;;;;;;;;5032100;28;20033;-49
2023/12/17 03:51:51;;;;;;;11.70;5.32;;;;;;;;;;5031990;28;20018;-49
2023/12/17 03:54:17;;;;;;;17.00;7.55;;;;;;;;;;5049059;28;20437;-48
2023/12/17 03:56:47;;;;;;;15.25;7.72;;;;;;;;;;5034531;28;20033;-46
2023/12/17 03:59:13;;;;;;;10.60;6.07;;;;;;;;;;5053412;28;20017;-49
2023/12/17 04:01:46;;;;;;;11.77;7.00;;;;;;;;;;5033622;28;20028;-47
2023/12/17 04:04:13;;;;;;;22.48;11.70;;;;;;;;;;5052937;28;20056;-48
2023/12/17 04:06:40;;;;;;;9.40;4.78;;;;;;;;;;5052627;28;20101;-46
2023/12/17 04:09:06;;;;;;;21.77;9.77;;;;;;;;;;5031814;28;20037;-51
2023/12/17 04:11:32;;;;;;;10.93;6.22;;;;;;;;;;5050120;28;20025;-51
2023/12/17 04:13:58;;;;;;;9.93;5.07;;;;;;;;;;5052798;28;20032;-50
2023/12/17 04:16:24;;;;;;;9.38;3.92;;;;;;;;;;5052461;28;20021;-53
2023/12/17 04:18:50;;;;;;;19.02;9.48;;;;;;;;;;5052570;28;20070;-51
2023/12/17 04:21:16;;;;;;;11.13;5.25;;;;;;;;;;5052427;28;20017;-48
2023/12/17 04:23:42;;;;;;;10.57;5.97;;;;;;;;;;5052359;28;20025;-50
2023/12/17 04:26:08;;;;;;;14.40;8.57;;;;;;;;;;5052573;28;20028;-46
2023/12/17 04:28:34;;;;;;;8.32;4.38;;;;;;;;;;5051035;28;20033;-47
2023/12/17 04:31:00;;;;;;;14.80;6.90;;;;;;;;;;5038814;28;20496;-46
2023/12/17 04:33:26;;;;;;;4.82;2.80;;;;;;;;;;5038597;28;20029;-48
2023/12/17 04:35:51;;;;;;;14.13;6.55;;;;;;;;;;5031946;28;20053;-48
2023/12/17 04:38:18;;;;;;;7.63;4.18;;;;;;;;;;5030930;28;20020;-48
2023/12/17 04:40:46;;;;;;;17.58;8.32;;;;;;;;;;5050886;28;20029;-47
2023/12/17 04:43:12;;;;;;;28.35;13.82;;;;;;;;;;5052084;28;20021;-44
2023/12/17 04:45:38;;;;;;;14.07;8.63;;;;;;;;;;5052199;28;20024;-47
2023/12/17 04:48:04;;;;;;;15.35;7.00;;;;;;;;;;5052190;28;20079;-47
2023/12/17 04:50:31;;;;;;;7.22;3.95;;;;;;;;;;5031309;28;20037;-47
2023/12/17 04:52:57;;;;;;;5.85;3.58;;;;;;;;;;5052049;28;20052;-52
2023/12/17 04:55:23;;;;;;;12.45;6.70;;;;;;;;;;5030389;28;20087;-50
2023/12/17 04:57:49;;;;;;;6.90;3.75;;;;;;;;;;5051445;28;20071;-49
2023/12/17 05:00:15;;;;;;;6.35;3.97;;;;;;;;;;5051581;28;20033;-47
2023/12/17 05:02:41;;;;;;;8.45;3.88;;;;;;;;;;5051273;28;20021;-49
2023/12/17 05:05:08;;;;;;;12.70;7.35;;;;;;;;;;5030365;28;20051;-53
2023/12/17 05:07:34;;;;;;;13.82;6.72;;;;;;;;;;5049335;28;20509;-48
2023/12/17 05:10:00;;;;;;;10.38;4.68;;;;;;;;;;5051384;28;20048;-49
2023/12/17 05:12:26;;;;;;;5.53;3.17;;;;;;;;;;5051128;28;20025;-51
2023/12/17 05:14:52;;;;;;;6.30;3.70;;;;;;;;;;5051282;28;20028;-53
2023/12/17 05:17:18;;;;;;;11.43;5.63;;;;;;;;;;5030187;28;20032;-53
2023/12/17 05:19:44;;;;;;;7.32;3.95;;;;;;;;;;5050246;28;20029;-49
2023/12/17 05:22:10;;;;;;;9.80;5.93;;;;;;;;;;5036586;28;20040;-49
2023/12/17 05:24:36;;;;;;;25.65;12.88;;;;;;;;;;5030707;28;20415;-46
2023/12/17 05:27:02;;;;;;;11.90;5.72;;;;;;;;;;5045062;28;20025;-45
2023/12/17 05:29:28;;;;;;;5.78;3.40;;;;;;;;;;5030972;28;20032;-50
2023/12/17 05:31:54;;;;;;;9.30;4.95;;;;;;;;;;5051020;28;20017;-51
2023/12/17 05:34:20;;;;;;;11.45;5.72;;;;;;;;;;5029918;28;20029;-50
2023/12/17 05:36:46;;;;;;;8.55;4.35;;;;;;;;;;5050466;28;20418;-46
2023/12/17 05:39:12;;;;;;;8.13;3.72;;;;;;;;;;5051105;28;20444;-48
2023/12/17 05:41:38;;;;;;;9.13;4.47;;;;;;;;;;5050744;28;20029;-50
2023/12/17 05:44:04;;;;;;;21.20;10.63;;;;;;;;;;5051063;28;20048;-48
2023/12/17 05:46:30;;;;;;;12.68;7.75;;;;;;;;;;5050730;28;20060;-48
2023/12/17 05:48:56;;;;;;;8.65;5.13;;;;;;;;;;5029701;28;20082;-51
2023/12/17 05:51:22;;;;;;;5.38;3.13;;;;;;;;;;5046664;28;20502;-48
2023/12/17 05:53:48;;;;;;;23.20;11.65;;;;;;;;;;5050509;28;20036;-47
2023/12/17 05:56:14;;;;;;;14.88;6.35;;;;;;;;;;5029394;28;20028;-48
2023/12/17 05:58:41;;;;;;;13.55;7.47;;;;;;;;;;5049094;28;20124;-50
2023/12/17 06:01:07;;;;;;;5.10;3.00;;;;;;;;;;5050138;28;20086;-54
2023/12/17 06:03:33;;;;;;;13.07;6.38;;;;;;;;;;5050335;28;20025;-47
2023/12/17 06:05:59;;;;;;;9.63;4.53;;;;;;;;;;5050491;28;20040;-50
2023/12/17 06:08:25;;;;;;;14.02;6.50;;;;;;;;;;5050289;28;20394;-52
2023/12/17 06:10:51;;;;;;;7.95;4.38;;;;;;;;;;5028821;28;20021;-52
2023/12/17 06:13:18;;;;;;;10.13;5.90;;;;;;;;;;5045796;28;20458;-47
2023/12/17 06:15:44;;;;;;;12.63;6.82;;;;;;;;;;5050299;28;20108;-50
2023/12/17 06:18:10;;;;;;;9.07;5.40;;;;;;;;;;5050385;28;20096;-48
2023/12/17 06:20:36;;;;;;;13.18;6.45;;;;;;;;;;5050046;28;20024;-50
2023/12/17 06:23:02;;;;;;;11.95;5.97;;;;;;;;;;5050159;28;20025;-52
2023/12/17 06:25:28;;;;;;;7.25;4.53;;;;;;;;;;5050084;28;20653;-51
2023/12/17 06:27:54;;;;;;;8.85;4.43;;;;;;;;;;5050126;28;20052;-48
2023/12/17 06:30:20;;;;;;;10.65;6.13;;;;;;;;;;5028909;28;20511;-48
2023/12/17 06:32:46;;;;;;;8.75;5.28;;;;;;;;;;5049246;28;20104;-50
2023/12/17 06:35:11;;;;;;;10.55;5.82;;;;;;;;;;5049993;28;20033;-51
2023/12/17 06:37:37;;;;;;;6.97;4.22;;;;;;;;;;5049144;28;20083;-46
2023/12/17 06:40:04;;;;;;;5.25;3.10;;;;;;;;;;5071412;23;20112;-64
2023/12/17 06:42:30;;;;;;;8.02;4.25;;;;;;;;;;5068155;28;20028;-62
2023/12/17 06:44:56;;;;;;;17.45;8.30;;;;;;;;;;5074175;28;20494;-63
2023/12/17 06:47:22;;;;;;;10.70;7.60;;;;;;;;;;5049839;28;20142;-64
2023/12/17 06:49:47;;;;;;;13.55;7.00;;;;;;;;;;5059823;28;20020;-64
2023/12/17 06:52:13;;;;;;;7.90;4.85;;;;;;;;;;5049357;28;20128;-64
2023/12/17 06:54:39;;;;;;;9.82;5.03;;;;;;;;;;5047453;28;20022;-62
2023/12/17 06:57:05;;;;;;;34.65;8.38;;;;;;;;;;5050109;28;20025;-64
2023/12/17 06:59:31;;;;;;;10.10;6.40;;;;;;;;;;5049523;28;20089;-64
2023/12/17 07:01:57;;;;;;;6.95;4.07;;;;;;;;;;5044528;28;20557;-64
2023/12/17 07:04:23;;;;;;;16.30;7.38;;;;;;;;;;5046681;28;20066;-64
2023/12/17 07:06:49;;;;;;;13.57;7.53;;;;;;;;;;5044748;28;20056;-63
2023/12/17 07:09:15;;;;;;;10.63;5.28;;;;;;;;;;5029890;28;20430;-64
2023/12/17 07:11:41;;;;;;;13.10;4.72;;;;;;;;;;5047426;28;20040;-64
2023/12/17 07:14:07;;;;;;;7.70;5.53;;;;;;;;;;5050775;28;20691;-64
2023/12/17 07:16:33;;;;;;;12.40;7.05;;;;;;;;;;5047016;28;20112;-64
2023/12/17 07:18:59;;;;;;;12.40;5.75;;;;;;;;;;5050026;28;20017;-64
2023/12/17 07:21:25;;;;;;;6.97;3.97;;;;;;;;;;5049174;28;20182;-64
2023/12/17 07:23:51;;;;;;;16.52;7.13;;;;;;;;;;5049909;28;20103;-63
2023/12/17 07:26:17;;;;;;;10.20;4.22;;;;;;;;;;5049709;28;20508;-64
2023/12/17 07:28:43;;;;;;;20.40;10.90;;;;;;;;;;5049402;28;20055;-63
2023/12/17 07:31:09;;;;;;;12.00;5.28;;;;;;;;;;5049213;28;20025;-64
2023/12/17 07:33:35;;;;;;;5.93;3.45;;;;;;;;;;5048973;28;20032;-64
2023/12/17 07:36:01;;;;;;;12.00;6.57;;;;;;;;;;5049585;28;20109;-64
2023/12/17 07:38:27;;;;;;;11.82;7.00;;;;;;;;;;5049825;28;20045;-62
2023/12/17 07:40:54;;;;;;;13.60;6.03;;;;;;;;;;5048893;28;20530;-63
2023/12/17 07:43:20;;;;;;;11.18;5.57;;;;;;;;;;5044546;28;20029;-64
2023/12/17 07:45:46;;;;;;;13.73;6.07;;;;;;;;;;5048049;28;20082;-64
2023/12/17 07:48:12;;;;;;;8.07;4.15;;;;;;;;;;5037618;28;20436;-63
2023/12/17 07:50:38;;;;;;;10.68;5.97;;;;;;;;;;5062284;28;20039;-64
2023/12/17 07:53:04;;;;;;;5.40;3.25;;;;;;;;;;5050565;28;20050;-64
2023/12/17 07:55:30;;;;;;;11.00;5.97;;;;;;;;;;5032582;28;20065;-63
2023/12/17 07:57:56;;;;;;;10.38;5.15;;;;;;;;;;5045807;28;20025;-63
2023/12/17 08:00:22;;;;;;;22.38;11.30;;;;;;;;;;5051766;28;20087;-62
2023/12/17 08:02:48;;;;;;;20.95;9.77;;;;;;;;;;5051363;28;20486;-63
2023/12/17 08:05:14;;;;;;;12.15;5.72;;;;;;;;;;5065275;28;20020;-63
2023/12/17 08:07:40;;;;;;;15.68;6.20;;;;;;;;;;5051095;28;20084;-63
2023/12/17 08:10:07;;;;;;;11.82;6.80;;;;;;;;;;5052176;28;20386;-64
2023/12/17 08:12:33;;;;;;;9.60;5.05;;;;;;;;;;5052160;28;20021;-63
2023/12/17 08:14:59;;;;;;;13.80;6.40;;;;;;;;;;5052320;28;20052;-62
2023/12/17 08:17:25;;;;;;;8.93;4.65;;;;;;;;;;5052018;28;20067;-62
2023/12/17 08:19:51;;;;;;;8.00;3.67;;;;;;;;;;5052252;28;20341;-63
2023/12/17 08:22:17;;;;;;;18.90;10.85;;;;;;;;;;5054607;28;20056;-63
2023/12/17 08:24:43;;;;;;;20.25;9.18;;;;;;;;;;5033670;28;20017;-63
2023/12/17 08:27:09;;;;;;;12.02;6.82;;;;;;;;;;5032027;28;20101;-63
2023/12/17 08:29:35;;;;;;;19.80;9.85;;;;;;;;;;5049683;28;20056;-63
2023/12/17 08:32:01;;;;;;;12.00;5.18;;;;;;;;;;5050992;28;20122;-63
2023/12/17 08:34:31;;;;;;;6.25;3.95;;;;;;;;;;5051570;28;20428;-64
2023/12/17 08:36:57;;;;;;;8.05;4.30;;;;;;;;;;5052175;28;20021;-63
2023/12/17 08:39:25;;;;;;;17.27;8.50;;;;;;;;;;5051785;28;20021;-63
2023/12/17 08:41:51;;;;;;;8.52;5.28;;;;;;;;;;5046831;28;20017;-63
2023/12/17 08:44:22;;;;;;;7.80;4.57;;;;;;;;;;5048036;28;20029;-62
2023/12/17 08:46:48;;;;;;;9.02;5.55;;;;;;;;;;5031485;28;20546;-64
2023/12/17 08:49:14;;;;;;;12.65;6.57;;;;;;;;;;5040072;28;20031;-64
2023/12/17 08:51:40;;;;;;;7.25;4.38;;;;;;;;;;5050896;28;20115;-62
2023/12/17 08:54:10;;;;;;;15.80;7.90;;;;;;;;;;5056984;28;20326;-61
2023/12/17 08:56:36;;;;;;;13.38;5.88;;;;;;;;;;5036223;28;20029;-50
2023/12/17 08:59:02;;;;;;;10.55;5.20;;;;;;;;;;5051810;28;20021;-52
2023/12/17 09:01:28;;;;;;;14.60;6.05;;;;;;;;;;5051385;28;20021;-50
2023/12/17 09:03:54;;;;;;;12.07;6.95;;;;;;;;;;5052343;28;20021;-53
2023/12/17 09:06:20;;;;;;;17.55;8.20;;;;;;;;;;5059057;28;20089;-58
2023/12/17 09:08:46;;;;;;;19.13;10.05;;;;;;;;;;5052589;28;20025;-53
2023/12/17 09:11:12;;;;;;;9.43;5.25;;;;;;;;;;5050410;28;20028;-52
2023/12/17 09:13:38;;;;;;;10.13;5.85;;;;;;;;;;5049633;28;20100;-57
2023/12/17 09:16:05;;;;;;;10.77;6.03;;;;;;;;;;5049745;28;20031;-53
2023/12/17 09:18:31;;;;;;;12.95;8.05;;;;;;;;;;5049546;28;20025;-53
2023/12/17 09:20:57;;;;;;;12.27;5.90;;;;;;;;;;5049361;28;20050;-53
2023/12/17 09:23:23;;;;;;;13.63;6.32;;;;;;;;;;5049949;28;20172;-54
2023/12/17 09:25:49;;;;;;;13.45;5.75;;;;;;;;;;5041657;28;20057;-55
2023/12/17 09:28:15;;;;;;;12.70;5.90;;;;;;;;;;5048513;28;20058;-54
2023/12/17 09:30:41;;;;;;;8.38;4.90;;;;;;;;;;5049390;28;20112;-57
2023/12/17 09:33:07;;;;;;;14.30;7.07;;;;;;;;;;5049730;28;20044;-52
2023/12/17 09:35:36;;;;;;;8.68;4.50;;;;;;;;;;5049306;28;20017;-50
2023/12/17 09:38:02;;;;;;;11.55;6.60;;;;;;;;;;5049395;28;20355;-54
2023/12/17 09:40:28;;;;;;;18.35;6.75;;;;;;;;;;5048830;28;20043;-56
2023/12/17 09:42:55;;;;;;;11.23;5.93;;;;;;;;;;5049263;28;20422;-54
2023/12/17 09:45:21;;;;;;;11.07;5.25;;;;;;;;;;5049046;28;20025;-56
2023/12/17 09:47:47;;;;;;;9.85;5.70;;;;;;;;;;5048813;28;20398;-54
2023/12/17 09:50:13;;;;;;;8.45;5.05;;;;;;;;;;5048964;28;20443;-56
2023/12/17 09:52:41;;;;;;;7.82;4.20;;;;;;;;;;5048524;28;20056;-58
2023/12/17 09:55:07;;;;;;;12.63;6.40;;;;;;;;;;5049096;28;20029;-56
2023/12/17 09:57:33;;;;;;;18.25;8.40;;;;;;;;;;5048757;28;20104;-59
2023/12/17 09:59:59;;;;;;;9.65;5.45;;;;;;;;;;5052098;28;20116;-57
2023/12/17 10:02:25;;;;;;;17.02;8.88;;;;;;;;;;5061531;28;20028;-55
2023/12/17 10:04:51;;;;;;;22.63;10.23;;;;;;;;;;5069026;28;20439;-55
2023/12/17 10:07:18;;;;;;;6.65;3.90;;;;;;;;;;5068979;28;20048;-52
2023/12/17 10:09:44;;;;;;;11.05;5.95;;;;;;;;;;5068787;28;20074;-52
2023/12/17 10:12:10;;;;;;;6.68;3.95;;;;;;;;;;5068129;28;20025;-59
2023/12/17 10:14:36;;;;;;;12.75;6.43;;;;;;;;;;5068719;28;20033;-58
2023/12/17 10:17:02;;;;;;;10.68;5.07;;;;;;;;;;5068880;28;20051;-57
2023/12/17 10:19:28;;;;;;;10.80;5.07;;;;;;;;;;5068722;28;20607;-59
2023/12/17 10:21:54;;;;;;;9.23;5.45;;;;;;;;;;5068109;28;20046;-56
2023/12/17 10:24:35;;;;;;;9.45;5.00;;;;;;;;;;5068515;28;20140;-60
2023/12/17 10:27:04;;;;;;;17.20;8.18;;;;;;;;;;5067466;28;20500;-60
2023/12/17 10:29:30;;;;;;;;;;;;;;;;;;5069376;28;20107;-57
2023/12/17 10:31:56;;;;;;;12.30;6.68;;;;;;;;;;5068318;28;19996;-56
2023/12/17 10:34:23;;;;;;;11.52;5.50;;;;;;;;;;5068366;28;20028;-59
2023/12/17 10:36:50;;;;;;;11.77;6.70;;;;;;;;;;5067902;28;20067;-60
2023/12/17 10:39:17;;;;;;;9.98;5.40;;;;;;;;;;5067834;28;20029;-60
2023/12/17 10:41:43;;;;;;;8.27;5.28;;;;;;;;;;5067705;28;20024;-61
2023/12/17 10:44:12;;;;;;;14.15;6.70;;;;;;;;;;5068038;28;20031;-59
2023/12/17 10:46:41;;;;;;;7.72;4.50;;;;;;;;;;5068109;28;20059;-59
2023/12/17 10:49:07;;;;;;;21.10;8.90;;;;;;;;;;5068612;28;20021;-59
2023/12/17 10:51:34;;;;;;;9.30;5.15;;;;;;;;;;5031531;28;20131;-61
2023/12/17 10:54:01;;;;;;;10.00;5.47;;;;;;;;;;5028644;28;20033;-58
2023/12/17 10:56:28;;;;;;;10.35;4.88;;;;;;;;;;5028323;28;20018;-59
2023/12/17 10:58:54;;;;;;;12.75;6.07;;;;;;;;;;5028424;28;20387;-58
2023/12/17 11:01:21;;;;;;;18.60;8.27;;;;;;;;;;5041679;28;20033;-60
2023/12/17 11:03:47;;;;;;;14.50;7.80;;;;;;;;;;5057127;28;20020;-60
2023/12/17 11:06:14;;;;;;;11.52;6.10;;;;;;;;;;5058638;28;20036;-59
2023/12/17 11:08:41;;;;;;;8.50;4.80;;;;;;;;;;5057368;28;20441;-60
2023/12/17 11:11:07;;;;;;;8.10;4.50;;;;;;;;;;5056810;28;20056;-61
2023/12/17 11:13:33;;;;;;;14.35;7.45;;;;;;;;;;5058793;28;20497;-59
2023/12/17 11:16:17;;;;;;;10.38;5.72;;;;;;;;;;5053273;28;20037;-59
2023/12/17 11:18:43;;;;;;;7.68;5.22;;;;;;;;;;5055562;28;20055;-57
2023/12/17 11:21:09;;;;;;;16.73;10.43;;;;;;;;;;5056701;28;20414;-55
2023/12/17 11:23:35;;;;;;;11.55;5.97;;;;;;;;;;5060261;28;20015;-55
2023/12/17 11:26:01;;;;;;;10.32;6.15;;;;;;;;;;5057968;28;20124;-58
2023/12/17 11:28:27;;;;;;;11.63;6.85;;;;;;;;;;5061200;28;20082;-59
2023/12/17 11:30:54;;;;;;;10.20;5.63;;;;;;;;;;5062333;28;20103;-59
2023/12/17 11:33:20;;;;;;;8.45;4.90;;;;;;;;;;5062389;28;20064;-57
2023/12/17 11:35:46;;;;;;;9.15;5.80;;;;;;;;;;5071569;28;20099;-58
2023/12/17 11:38:13;;;;;;;13.70;5.32;;;;;;;;;;5071570;28;20474;-60
2023/12/17 11:40:39;;;;;;;12.13;7.10;;;;;;;;;;5070986;28;20055;-59
2023/12/17 11:43:05;;;;;;;9.60;5.20;;;;;;;;;;5071593;28;20086;-55
2023/12/17 11:45:36;;;;;;;9.25;5.30;;;;;;;;;;5071442;28;20112;-58
2023/12/17 11:48:16;;;;;;;9.70;5.95;;;;;;;;;;5071564;28;20036;-58
2023/12/17 11:50:42;;;;;;;9.65;4.70;;;;;;;;;;5048741;28;20473;-58
2023/12/17 11:53:08;;;;;;;9.18;5.22;;;;;;;;;;5031527;28;20032;-58
2023/12/17 11:55:43;;;;;;;10.30;5.43;;;;;;;;;;5031369;28;20360;-60
2023/12/17 11:58:09;;;;;;;13.27;7.53;;;;;;;;;;5031469;28;20087;-55
2023/12/17 12:00:35;;;;;;;11.35;6.93;;;;;;;;;;5029745;28;20106;-57
2023/12/17 12:03:01;;;;;;;7.75;4.55;;;;;;;;;;5031784;28;20021;-57
2023/12/17 12:05:27;;;;;;;11.55;6.05;;;;;;;;;;5031321;28;20034;-60
2023/12/17 12:07:54;;;;;;;12.82;6.68;;;;;;;;;;5031072;28;20087;-57
2023/12/17 12:10:20;;;;;;;10.45;5.10;;;;;;;;;;5029812;28;20033;-57
2023/12/17 12:12:46;;;;;;;9.48;5.57;;;;;;;;;;5031409;28;20470;-60
2023/12/17 12:15:12;;;;;;;7.82;4.40;;;;;;;;;;5031188;28;20136;-58
2023/12/17 12:17:42;;;;;;;10.38;5.82;;;;;;;;;;5031276;28;20441;-58
2023/12/17 12:20:08;;;;;;;6.85;4.07;;;;;;;;;;5030641;28;20017;-60
2023/12/17 12:22:35;;;;;;;11.10;7.45;;;;;;;;;;5029110;28;20017;-57
2023/12/17 12:25:01;;;;;;;7.22;4.30;;;;;;;;;;5029519;28;20031;-59
2023/12/17 12:27:27;;;;;;;10.75;6.13;;;;;;;;;;5030791;28;20103;-55
2023/12/17 12:29:53;;;;;;;9.48;5.22;;;;;;;;;;5030707;28;20041;-59
2023/12/17 12:32:29;;;;;;;11.73;6.38;;;;;;;;;;5030247;28;20491;-60
2023/12/17 12:34:55;;;;;;;16.25;9.65;;;;;;;;;;5029458;28;20316;-58
2023/12/17 12:37:31;;;;;;;16.05;7.00;;;;;;;;;;5030627;28;20117;-58
2023/12/17 12:39:57;;;;;;;9.10;5.90;;;;;;;;;;5030113;28;20021;-60
2023/12/17 12:42:23;;;;;;;15.55;7.03;;;;;;;;;;5057431;23;20399;-50
2023/12/17 12:44:49;;;;;;;12.75;8.43;;;;;;;;;;5051498;28;20029;-51
2023/12/17 12:47:15;;;;;;;8.82;5.10;;;;;;;;;;5052020;28;20021;-52
2023/12/17 12:49:41;;;;;;;11.20;5.85;;;;;;;;;;5051780;28;20029;-50
2023/12/17 12:52:07;;;;;;;14.30;8.02;;;;;;;;;;5050035;28;20481;-51
2023/12/17 12:54:33;;;;;;;11.80;6.22;;;;;;;;;;5051860;28;20033;-52
2023/12/17 12:56:59;;;;;;;14.43;8.10;;;;;;;;;;5051587;28;20033;-50
2023/12/17 12:59:26;;;;;;;14.27;7.10;;;;;;;;;;5051353;28;20029;-53
2023/12/17 13:01:54;;;;;;;8.15;4.95;;;;;;;;;;5052252;28;20072;-52
2023/12/17 13:04:20;;;;;;;9.02;5.40;;;;;;;;;;5031607;28;20053;-50
2023/12/17 13:06:47;;;;;;;7.90;4.70;;;;;;;;;;5030317;28;20063;-53
2023/12/17 13:09:13;;;;;;;15.32;8.98;;;;;;;;;;5031634;28;20487;-51
2023/12/17 13:11:39;;;;;;;11.30;8.25;;;;;;;;;;5031392;28;20119;-51
2023/12/17 13:14:05;;;;;;;8.00;4.43;;;;;;;;;;5031670;28;20045;-54
2023/12/17 13:16:31;;;;;;;13.32;8.52;;;;;;;;;;5031723;28;20033;-54
2023/12/17 13:18:57;;;;;;;16.50;10.38;;;;;;;;;;5029993;28;20033;-57
2023/12/17 13:21:23;;;;;;;12.07;7.00;;;;;;;;;;5031355;28;20590;-50
2023/12/17 13:23:50;;;;;;;11.15;6.18;;;;;;;;;;5030114;28;20028;-51
2023/12/17 13:26:16;;;;;;;20.80;12.00;;;;;;;;;;5031413;28;20026;-51
2023/12/17 13:28:42;;;;;;;17.63;7.85;;;;;;;;;;5031459;28;20598;-51
2023/12/17 13:31:09;;;;;;;16.75;10.13;;;;;;;;;;5029786;28;20033;-53
2023/12/17 13:33:34;;;;;;;21.02;10.30;;;;;;;;;;5031329;28;20450;-55
2023/12/17 13:36:03;;;;;;;16.58;9.85;;;;;;;;;;5044104;28;20087;-48
2023/12/17 13:38:29;;;;;;;14.60;6.63;;;;;;;;;;5050860;28;20108;-52
2023/12/17 13:40:55;;;;;;;12.18;6.55;;;;;;;;;;5050564;28;20079;-51
2023/12/17 13:43:22;;;;;;;10.65;5.57;;;;;;;;;;5051166;28;20020;-47
2023/12/17 13:45:48;;;;;;;15.75;8.68;;;;;;;;;;5050412;28;20052;-52
2023/12/17 13:48:15;;;;;;;9.10;4.95;;;;;;;;;;5050705;28;20024;-52
2023/12/17 13:50:44;;;;;;;12.38;7.22;;;;;;;;;;5051805;28;20109;-57
2023/12/17 13:53:10;;;;;;;8.27;4.93;;;;;;;;;;5052701;28;20031;-55
2023/12/17 13:55:36;;;;;;;10.23;6.50;;;;;;;;;;5057801;28;20033;-49
2023/12/17 13:58:02;;;;;;;19.20;9.88;;;;;;;;;;5067765;28;20025;-53
2023/12/17 14:00:28;;;;;;;19.58;9.07;;;;;;;;;;5069983;28;20428;-54
2023/12/17 14:02:54;;;;;;;11.38;5.80;;;;;;;;;;5066322;28;20028;-51
2023/12/17 14:05:20;;;;;;;14.15;8.32;;;;;;;;;;5050003;28;20025;-54
2023/12/17 14:07:46;;;;;;;18.35;10.48;;;;;;;;;;5050192;28;20164;-55
2023/12/17 14:10:12;;;;;;;12.63;6.75;;;;;;;;;;5045629;28;20022;-51
2023/12/17 14:12:38;;;;;;;16.90;9.30;;;;;;;;;;5047775;28;20044;-53
2023/12/17 14:15:06;;;;;;;18.80;9.73;;;;;;;;;;5050204;28;20056;-50
2023/12/17 14:17:32;;;;;;;9.32;5.03;;;;;;;;;;5046133;28;20032;-49
2023/12/17 14:19:58;;;;;;;10.30;7.10;;;;;;;;;;5049806;28;20104;-55
2023/12/17 14:22:25;;;;;;;11.05;6.70;;;;;;;;;;5049797;28;20188;-52
2023/12/17 14:24:51;;;;;;;20.15;12.48;;;;;;;;;;5049838;28;20100;-50
2023/12/17 14:27:17;;;;;;;13.55;7.22;;;;;;;;;;5050263;28;20060;-51
2023/12/17 14:29:43;;;;;;;13.43;7.03;;;;;;;;;;5050058;28;20095;-55